Incline Village, Nevada
Current Conditions -  °F | °C
As of 6:55 AM on Friday 28 Nov 2014 (Local Time) from KTRK Reporting Station
Few Clouds Few Clouds  
Wind Chill: 48°   Ceiling: Unl
Heat Index: 48°   Visibility: 10mi
Dew Point: -17°   Wind: 0mph
Humidity: 6%   Direction: NA
Pressure: 30.07"   Gusts: NA
Location:  39.25°N, 119.97°W
Report Text: KTRK 281455Z 00000KT 10SM FEW150 09/M27 A3007 RMK NOSPECI FIRST 24HR MAX 0183 MIN 0006
Loading
Personal Weather Stations






























Interactive Weather Map New forecast layout! Learn more

10-Day Weather Forecast

Advertisements
Track Severe Weather on mobile